createdAt,value
2023-04-13T00:04:26.340Z,100314.78
2023-04-13T00:09:23.150Z,100313.66
2023-04-13T00:14:19.990Z,100316.72
2023-04-13T00:19:17.150Z,100310.94
2023-04-13T00:24:15.257Z,100303.16
2023-04-13T00:29:12.018Z,100305.09
2023-04-13T00:34:08.716Z,100302.97
2023-04-13T00:39:05.825Z,100299.44
2023-04-13T00:44:03.194Z,100298.63
2023-04-13T00:49:01.177Z,100301.06
2023-04-13T00:53:58.724Z,100300.41
2023-04-13T00:58:57.314Z,100292.34
2023-04-13T01:03:54.722Z,100295.94
2023-04-13T01:08:54.300Z,100301.56
2023-04-13T01:13:55.458Z,100299.94
2023-04-13T01:18:52.680Z,100302.16
2023-04-13T01:23:52.108Z,100296.25
2023-04-13T01:28:50.691Z,100296.69
2023-04-13T01:33:47.405Z,100300.81
2023-04-13T01:38:44.102Z,100308.63
2023-04-13T01:43:43.027Z,100323.06
2023-04-13T01:48:44.229Z,100327.63
2023-04-13T01:54:14.560Z,100330.28
2023-04-13T01:59:16.039Z,100321.88
2023-04-13T02:04:14.373Z,100326.22
2023-04-13T02:09:13.804Z,100335.66
2023-04-13T02:14:10.516Z,100328.41
2023-04-13T02:19:07.603Z,100341.72
2023-04-13T02:24:05.964Z,100349.94
2023-04-13T02:29:02.563Z,100345.28
2023-04-13T02:33:59.299Z,100336.56
2023-04-13T02:38:56.128Z,100343.22
2023-04-13T02:43:59.485Z,100349.97
2023-04-13T02:48:59.338Z,100350.66
2023-04-13T02:53:59.621Z,100350.03
2023-04-13T02:58:56.787Z,100350.53
2023-04-13T03:03:54.660Z,100355.84
2023-04-13T03:08:54.552Z,100364.63
2023-04-13T03:13:53.664Z,100362.63
2023-04-13T03:18:51.580Z,100377.47
2023-04-13T03:23:49.163Z,100377.69
2023-04-13T03:28:47.714Z,100390.41
2023-04-13T03:33:44.900Z,100388.47
2023-04-13T03:38:41.748Z,100400.94
2023-04-13T03:43:39.932Z,100399.31
2023-04-13T03:48:41.654Z,100402.06
2023-04-13T03:53:40.858Z,100405.81
2023-04-13T03:58:38.196Z,100411.56
2023-04-13T04:03:37.136Z,100418.94
2023-04-13T04:08:37.073Z,100412.34
2023-04-13T04:13:38.394Z,100411.50
2023-04-13T04:18:39.961Z,100422.34
2023-04-13T04:23:39.687Z,100419.94
2023-04-13T04:28:38.642Z,100426.94
2023-04-13T04:33:38.344Z,100411.59
2023-04-13T04:38:36.090Z,100438.97
2023-04-13T04:43:37.179Z,100437.91
2023-04-13T04:48:37.126Z,100436.69
2023-04-13T04:53:34.884Z,100445.91
2023-04-13T04:58:36.452Z,100448.47
2023-04-13T05:03:33.377Z,100451.97
2023-04-13T05:08:56.762Z,100427.88
2023-04-13T05:13:57.119Z,100449.56
2023-04-13T05:18:56.037Z,100439.53
2023-04-13T05:24:10.859Z,100444.84
2023-04-13T05:29:12.691Z,100443.78
2023-04-13T05:34:12.921Z,100440.03
2023-04-13T05:39:16.277Z,100455.34
2023-04-13T05:44:16.396Z,100455.25
2023-04-13T05:49:15.069Z,100458.94
2023-04-13T05:54:13.442Z,100461.03
2023-04-13T05:59:16.991Z,100452.81
2023-04-13T06:04:15.388Z,100459.63
2023-04-13T06:09:14.138Z,100466.34
2023-04-13T06:14:21.550Z,100461.56
2023-04-13T06:19:36.395Z,100463.25
2023-04-13T06:25:27.739Z,100472.16
2023-04-13T06:30:49.786Z,100489.16
2023-04-13T06:36:44.989Z,100483.81
2023-04-13T06:42:22.621Z,100486.88
2023-04-13T06:48:08.641Z,100468.75
2023-04-13T06:53:43.171Z,100496.28
2023-04-13T06:59:02.649Z,100495.84
2023-04-13T07:04:29.013Z,100490.09
2023-04-13T07:09:48.096Z,100491.59
2023-04-13T07:14:50.324Z,100490.03
2023-04-13T07:26:24.735Z,100500.06
2023-04-13T07:32:20.859Z,100491.25
2023-04-13T07:38:58.326Z,100494.50
2023-04-13T07:50:00.223Z,100489.59
2023-04-13T07:56:01.725Z,100494.97
2023-04-13T08:07:42.398Z,100485.88
2023-04-13T08:13:23.334Z,100479.22
2023-04-13T08:24:35.697Z,100480.34
2023-04-13T08:30:20.077Z,100478.38
2023-04-13T08:35:32.473Z,100483.03
2023-04-13T08:40:33.325Z,100472.88
2023-04-13T08:45:30.710Z,100470.16
2023-04-13T08:50:30.900Z,100475.84
2023-04-13T08:55:31.889Z,100472.13
2023-04-13T09:00:29.744Z,100472.72
2023-04-13T09:05:31.205Z,100461.56
2023-04-13T09:10:32.719Z,100452.91
2023-04-13T09:15:30.657Z,100454.16
2023-04-13T09:20:55.005Z,100442.28
2023-04-13T09:26:03.592Z,100435.72
2023-04-13T09:31:04.813Z,100437.78
2023-04-13T09:36:11.855Z,100434.34
2023-04-13T09:41:09.539Z,100438.03
2023-04-13T09:46:11.632Z,100440.13
2023-04-13T09:51:09.252Z,100439.47
2023-04-13T09:56:06.382Z,100437.25
2023-04-13T10:01:06.290Z,100430.03
2023-04-13T10:06:05.970Z,100421.69
2023-04-13T10:11:03.750Z,100414.09
2023-04-13T10:16:12.480Z,100416.31
2023-04-13T10:21:09.861Z,100419.44
2023-04-13T10:26:09.938Z,100412.66
2023-04-13T10:31:08.579Z,100413.38
2023-04-13T10:36:08.702Z,100407.41
2023-04-13T10:41:08.182Z,100400.28
2023-04-13T10:46:08.006Z,100404.13
2023-04-13T10:51:12.902Z,100401.09
2023-04-13T10:56:15.512Z,100404.34
2023-04-13T11:01:15.592Z,100399.97
2023-04-13T11:06:14.296Z,100386.72
2023-04-13T11:11:14.844Z,100387.13
2023-04-13T11:16:11.762Z,100384.91
2023-04-13T11:21:14.997Z,100378.84
2023-04-13T11:26:11.658Z,100370.81
2023-04-13T11:31:08.731Z,100384.16
2023-04-13T11:36:06.015Z,100374.25
2023-04-13T11:41:15.662Z,100368.72
2023-04-13T11:46:15.655Z,100361.84
2023-04-13T11:51:12.770Z,100360.63
2023-04-13T11:56:13.947Z,100363.72
2023-04-13T12:01:15.506Z,100359.81
2023-04-13T12:06:17.560Z,100365.63
2023-04-13T12:11:40.749Z,100356.50
2023-04-13T12:17:03.073Z,100355.22
2023-04-13T12:21:57.895Z,100353.31
2023-04-13T12:27:16.505Z,100349.19
2023-04-13T12:32:20.407Z,100335.72
2023-04-13T12:37:25.393Z,100333.69
2023-04-13T12:42:23.114Z,100319.38
2023-04-13T12:47:19.941Z,100316.72
2023-04-13T12:52:16.604Z,100311.72
2023-04-13T12:57:16.540Z,100305.72
2023-04-13T13:02:13.823Z,100308.38
2023-04-13T13:07:10.469Z,100304.72
2023-04-13T13:12:07.947Z,100294.63
2023-04-13T13:17:09.500Z,100302.84
2023-04-13T13:22:07.016Z,100302.22
2023-04-13T13:32:03.819Z,100293.66
2023-04-13T13:37:00.523Z,100289.63
2023-04-13T13:41:58.470Z,100288.25
2023-04-13T13:46:55.212Z,100291.59
2023-04-13T13:51:54.867Z,100287.22
2023-04-13T13:56:54.935Z,100280.22
2023-04-13T14:01:53.757Z,100270.28
2023-04-13T14:06:50.683Z,100265.00
2023-04-13T14:11:50.133Z,100266.13
2023-04-13T14:16:46.809Z,100268.59
2023-04-13T14:21:44.261Z,100264.56
2023-04-13T14:26:41.115Z,100260.78
2023-04-13T14:31:38.046Z,100245.97
2023-04-13T14:36:36.698Z,100267.75
2023-04-13T14:41:34.237Z,100266.38
2023-04-13T14:46:31.207Z,100258.25
2023-04-13T14:51:28.454Z,100248.72
2023-04-13T14:56:25.690Z,100255.34
2023-04-13T15:01:24.401Z,100259.47
2023-04-13T15:06:21.989Z,100251.50
2023-04-13T15:11:20.745Z,100262.38
2023-04-13T15:16:17.758Z,100259.22
2023-04-13T15:21:15.607Z,100242.97
2023-04-13T15:26:15.950Z,100257.19
2023-04-13T15:31:12.804Z,100251.19
2023-04-13T15:36:12.399Z,100257.44
2023-04-13T15:41:10.533Z,100257.81
2023-04-13T15:46:08.454Z,100243.97
2023-04-13T15:51:06.881Z,100240.97
2023-04-13T15:56:07.516Z,100240.03
2023-04-13T16:01:09.475Z,100238.66
2023-04-13T16:06:06.360Z,100228.22
2023-04-13T16:11:03.029Z,100230.81
2023-04-13T16:16:01.148Z,100245.31
2023-04-13T16:20:58.763Z,100249.81
2023-04-13T16:25:55.661Z,100255.34
2023-04-13T16:30:52.512Z,100255.97
2023-04-13T16:35:49.270Z,100256.63
2023-04-13T16:40:46.924Z,100257.38
2023-04-13T16:45:43.644Z,100266.19
2023-04-13T16:50:40.790Z,100256.47
2023-04-13T16:55:37.706Z,100260.47
2023-04-13T17:00:35.263Z,100262.22
2023-04-13T17:05:31.815Z,100269.00
2023-04-13T17:10:28.466Z,100281.44
2023-04-13T17:15:25.170Z,100271.72
2023-04-13T17:20:22.716Z,100272.19
2023-04-13T17:25:20.487Z,100277.03
2023-04-13T17:30:23.554Z,100285.34
2023-04-13T17:35:22.762Z,100287.78
2023-04-13T17:40:20.401Z,100294.88
2023-04-13T17:45:18.274Z,100299.88
2023-04-13T17:50:16.471Z,100299.00
2023-04-13T17:55:13.529Z,100309.41
2023-04-13T18:00:12.108Z,100302.50
2023-04-13T18:05:14.813Z,100316.94
2023-04-13T18:10:20.985Z,100321.38
2023-04-13T18:15:19.638Z,100320.41
2023-04-13T18:20:18.816Z,100323.66
2023-04-13T18:25:18.343Z,100314.38
2023-04-13T18:30:15.205Z,100315.72
2023-04-13T18:35:14.003Z,100317.72
2023-04-13T18:40:11.228Z,100319.09
2023-04-13T18:45:08.364Z,100325.75
2023-04-13T18:50:05.571Z,100331.47
2023-04-13T18:55:03.189Z,100328.91
2023-04-13T18:59:59.991Z,100329.84
2023-04-13T19:04:57.060Z,100334.41
2023-04-13T19:09:56.580Z,100335.56
2023-04-13T19:14:53.848Z,100342.72
2023-04-13T19:19:50.871Z,100327.47
2023-04-13T19:24:48.004Z,100354.69
2023-04-13T19:29:45.516Z,100352.59
2023-04-13T19:34:45.972Z,100334.69
2023-04-13T19:39:45.764Z,100350.56
2023-04-13T19:44:42.325Z,100332.69
2023-04-13T19:49:39.012Z,100348.16
2023-04-13T19:54:38.844Z,100347.50
2023-04-13T19:59:35.615Z,100344.19
2023-04-13T20:04:32.951Z,100339.03
2023-04-13T20:09:29.904Z,100342.44
2023-04-13T20:14:27.262Z,100337.72
2023-04-13T20:19:24.626Z,100327.44
2023-04-13T20:24:21.370Z,100331.78
2023-04-13T20:29:21.272Z,100326.41
2023-04-13T20:34:19.673Z,100325.00
2023-04-13T20:39:21.204Z,100327.63
2023-04-13T20:44:24.033Z,100326.41
2023-04-13T20:49:22.580Z,100324.50
2023-04-13T20:54:22.092Z,100320.06
2023-04-13T20:59:21.397Z,100322.63
2023-04-13T21:04:20.418Z,100314.69
2023-04-13T21:09:18.077Z,100309.03
2023-04-13T21:14:15.726Z,100310.91
2023-04-13T21:19:12.425Z,100303.75
2023-04-13T21:24:09.089Z,100311.03
2023-04-13T21:29:07.166Z,100298.53
2023-04-13T21:34:03.715Z,100306.31
2023-04-13T21:39:00.610Z,100298.19
2023-04-13T21:43:57.492Z,100295.53
2023-04-13T21:48:54.936Z,100305.47
2023-04-13T21:53:51.918Z,100291.84
2023-04-13T21:58:48.575Z,100301.59
2023-04-13T22:03:46.135Z,100290.28
2023-04-13T22:08:43.670Z,100287.47
2023-04-13T22:13:41.002Z,100281.81
2023-04-13T22:18:39.593Z,100295.88
2023-04-13T22:23:36.290Z,100289.09
2023-04-13T22:28:33.567Z,100291.53
2023-04-13T22:33:32.285Z,100291.53
2023-04-13T22:38:28.962Z,100291.53
2023-04-13T22:43:25.779Z,100286.16
2023-04-13T22:48:23.201Z,100262.81
2023-04-13T22:53:19.967Z,100264.88
2023-04-13T22:58:16.582Z,100270.41
2023-04-13T23:03:13.554Z,100273.13
2023-04-13T23:08:13.505Z,100278.56
2023-04-13T23:13:10.336Z,100275.91
2023-04-13T23:18:10.155Z,100270.06
2023-04-13T23:23:06.795Z,100273.44
2023-04-13T23:28:04.290Z,100270.50
2023-04-13T23:33:01.006Z,100245.44
2023-04-13T23:37:57.692Z,100263.41
2023-04-13T23:42:54.259Z,100253.28
2023-04-13T23:47:51.807Z,100258.75
2023-04-13T23:52:48.460Z,100257.38
2023-04-13T23:57:45.308Z,100257.88
